Gibbon, Nebraska
Current Conditions -  °F | °C
As of 5:35 PM on Tuesday 25 Nov 2014 (Local Time) from KEAR Reporting Station
Broken Clouds Broken Clouds  
Wind Chill: 42°   Ceiling: 12000
Heat Index: 45°   Visibility: 10mi
Dew Point: 18°   Wind: 5mph
Humidity: 34%   Direction: 200°SSW
Pressure: 29.86"   Gusts: NA
Location:  40.75°N, 98.84°W
Report Text: KEAR 252335Z 20004KT 10SM SCT070 SCT095 BKN120 07/M08 A2986 RMK AO1
Loading
Personal Weather Stations






























Interactive Weather Map New forecast layout! Learn more

10-Day Weather Forecast

Advertisements
Track Severe Weather on mobile